createdAt,value
2017-04-05T00:00:46.963Z,74.77
2017-04-05T00:01:48.384Z,75.05
2017-04-05T00:02:50.595Z,75.43
2017-04-05T00:03:52.024Z,75.28
2017-04-05T00:04:53.447Z,74.15
2017-04-05T00:05:55.559Z,74.33
2017-04-05T00:06:57.001Z,73.57
2017-04-05T00:07:58.423Z,73.67
2017-04-05T00:08:59.841Z,74.30
2017-04-05T00:10:01.260Z,74.96
2017-04-05T00:11:02.685Z,75.15
2017-04-05T00:12:04.102Z,74.77
2017-04-05T00:13:06.316Z,74.77
2017-04-05T00:14:07.741Z,74.81
2017-04-05T00:15:10.104Z,74.68
2017-04-05T00:16:11.523Z,75.05
2017-04-05T00:17:12.949Z,75.34
2017-04-05T00:18:14.366Z,74.58
2017-04-05T00:19:15.794Z,75.05
2017-04-05T00:20:17.211Z,76.39
2017-04-05T00:21:18.629Z,76.01
2017-04-05T00:22:20.057Z,76.57
2017-04-05T00:23:21.477Z,77.05
2017-04-05T00:24:22.899Z,76.95
2017-04-05T00:25:24.320Z,77.14
2017-04-05T00:26:25.742Z,77.62
2017-04-05T00:27:27.163Z,77.81
2017-04-05T00:28:28.598Z,77.05
2017-04-05T00:29:30.018Z,77.62
2017-04-05T00:30:32.789Z,79.00
2017-04-05T00:31:34.210Z,79.38
2017-04-05T00:32:35.627Z,79.57
2017-04-05T00:33:37.050Z,79.42
2017-04-05T00:34:38.486Z,77.33
2017-04-05T00:35:39.899Z,77.33
2017-04-05T00:36:41.317Z,77.43
2017-04-05T00:37:42.742Z,76.20
2017-04-05T00:38:44.172Z,76.10
2017-04-05T00:39:45.596Z,76.01
2017-04-05T00:40:47.016Z,76.29
2017-04-05T00:41:48.440Z,76.10
2017-04-05T00:42:49.860Z,76.20
2017-04-05T00:43:51.279Z,76.01
2017-04-05T00:44:52.699Z,75.91
2017-04-05T00:45:54.119Z,77.39
2017-04-05T00:46:55.541Z,77.86
2017-04-05T00:47:56.969Z,78.15
2017-04-05T00:48:58.388Z,78.62
2017-04-05T00:49:59.810Z,77.86
2017-04-05T00:51:01.241Z,77.62
2017-04-05T00:52:02.670Z,76.95
2017-04-05T00:53:04.094Z,77.39
2017-04-05T00:54:05.522Z,78.34
2017-04-05T00:55:06.943Z,78.28
2017-04-05T00:56:08.371Z,77.58
2017-04-05T00:57:09.798Z,77.77
2017-04-05T00:58:11.219Z,77.77
2017-04-05T00:59:12.635Z,79.19
2017-04-05T01:00:14.058Z,80.33
2017-04-05T01:01:15.486Z,80.24
2017-04-05T01:02:16.911Z,79.00
2017-04-05T01:03:18.337Z,78.91
2017-04-05T01:04:19.761Z,79.66
2017-04-05T01:05:21.182Z,80.24
2017-04-05T01:06:22.615Z,79.85
2017-04-05T01:07:24.035Z,80.33
2017-04-05T01:08:25.451Z,80.99
2017-04-05T01:09:27.666Z,82.51
2017-04-05T01:10:29.084Z,80.90
2017-04-05T01:11:30.509Z,80.52
2017-04-05T01:12:31.931Z,80.24
2017-04-05T01:13:33.359Z,81.56
2017-04-05T01:14:34.780Z,80.90
2017-04-05T01:15:36.209Z,81.66
2017-04-05T01:16:37.627Z,81.47
2017-04-05T01:17:39.055Z,81.18
2017-04-05T01:18:40.476Z,80.33
2017-04-05T01:19:41.906Z,79.38
2017-04-05T01:20:43.336Z,78.24
2017-04-05T01:21:44.764Z,77.86
2017-04-05T01:22:46.199Z,78.81
2017-04-05T01:23:47.617Z,80.80
2017-04-05T01:24:49.038Z,80.62
2017-04-05T01:25:50.460Z,80.99
2017-04-05T01:26:52.466Z,80.43
2017-04-05T01:27:53.243Z,79.76
2017-04-05T01:28:54.660Z,80.52
2017-04-05T01:29:56.081Z,80.52
2017-04-05T01:30:57.500Z,79.19
2017-04-05T01:31:58.928Z,79.10
2017-04-05T01:33:00.367Z,78.15
2017-04-05T01:34:01.791Z,78.43
2017-04-05T01:35:03.216Z,78.62
2017-04-05T01:36:04.643Z,79.47
2017-04-05T01:37:06.068Z,79.57
2017-04-05T01:38:07.489Z,78.72
2017-04-05T01:39:09.588Z,78.62
2017-04-05T01:40:11.005Z,78.53
2017-04-05T01:41:12.428Z,79.19
2017-04-05T01:42:13.848Z,79.10
2017-04-05T01:43:15.285Z,78.24
2017-04-05T01:44:16.702Z,78.53
2017-04-05T01:45:18.121Z,78.72
2017-04-05T01:46:19.551Z,79.66
2017-04-05T01:47:20.975Z,80.43
2017-04-05T01:48:22.397Z,81.37
2017-04-05T01:49:23.823Z,81.56
2017-04-05T01:50:25.247Z,80.24
2017-04-05T01:51:26.669Z,80.43
2017-04-05T01:52:28.086Z,81.47
2017-04-05T01:53:29.516Z,81.47
2017-04-05T01:54:30.942Z,82.18
2017-04-05T01:55:32.358Z,82.28
2017-04-05T01:56:33.781Z,83.13
2017-04-05T01:57:35.197Z,83.61
2017-04-05T01:58:36.624Z,84.27
2017-04-05T01:59:38.047Z,84.74
2017-04-05T02:00:39.465Z,84.89
2017-04-05T02:01:40.891Z,85.78
2017-04-05T02:02:42.312Z,86.55
2017-04-05T02:03:43.730Z,86.64
2017-04-05T02:04:45.151Z,85.31
2017-04-05T02:05:46.574Z,84.36
2017-04-05T02:06:47.991Z,85.03
2017-04-05T02:07:49.412Z,86.35
2017-04-05T02:08:50.835Z,86.16
2017-04-05T02:09:52.258Z,86.64
2017-04-05T02:10:53.680Z,86.35
2017-04-05T02:11:55.099Z,85.88
2017-04-05T02:12:56.521Z,84.46
2017-04-05T02:13:57.946Z,83.65
2017-04-05T02:14:59.360Z,82.32
2017-04-05T02:16:00.779Z,81.18
2017-04-05T02:17:02.195Z,81.62
2017-04-05T02:18:03.620Z,83.51
2017-04-05T02:19:05.042Z,85.03
2017-04-05T02:20:06.458Z,85.22
2017-04-05T02:21:07.880Z,84.36
2017-04-05T02:22:09.318Z,84.17
2017-04-05T02:23:10.740Z,83.74
2017-04-05T02:24:12.159Z,82.51
2017-04-05T02:25:13.689Z,81.94
2017-04-05T02:26:15.124Z,82.04
2017-04-05T02:27:16.553Z,81.18
2017-04-05T02:28:17.977Z,80.80
2017-04-05T02:29:19.408Z,80.80
2017-04-05T02:30:20.828Z,80.71
2017-04-05T02:31:22.249Z,80.43
2017-04-05T02:32:23.668Z,80.43
2017-04-05T02:33:25.090Z,82.47
2017-04-05T02:34:26.510Z,82.98
2017-04-05T02:35:27.930Z,83.70
2017-04-05T02:36:29.351Z,83.32
2017-04-05T02:37:30.775Z,83.61
2017-04-05T02:38:32.820Z,83.80
2017-04-05T02:39:34.241Z,83.80
2017-04-05T02:40:35.670Z,83.89
2017-04-05T02:41:37.089Z,84.84
2017-04-05T02:42:38.512Z,84.36
2017-04-05T02:43:39.935Z,84.65
2017-04-05T02:44:41.364Z,84.46
2017-04-05T02:45:42.781Z,84.84
2017-04-05T02:46:44.198Z,84.84
2017-04-05T02:47:45.619Z,84.94
2017-04-05T02:48:47.040Z,85.31
2017-04-05T02:49:48.461Z,86.07
2017-04-05T02:50:49.888Z,86.93
2017-04-05T02:51:51.312Z,86.35
2017-04-05T02:52:52.741Z,86.26
2017-04-05T02:53:54.162Z,86.07
2017-04-05T02:54:55.664Z,86.74
2017-04-05T02:55:57.082Z,86.55
2017-04-05T02:56:58.513Z,87.21
2017-04-05T02:57:59.975Z,86.35
2017-04-05T02:59:01.414Z,85.88
2017-04-05T03:00:02.836Z,84.69
2017-04-05T03:01:04.264Z,83.46
2017-04-05T03:02:05.681Z,82.70
2017-04-05T03:03:07.100Z,81.94
2017-04-05T03:04:08.515Z,81.47
2017-04-05T03:05:09.942Z,81.66
2017-04-05T03:06:11.460Z,81.85
2017-04-05T03:07:12.883Z,81.56
2017-04-05T03:08:14.300Z,81.66
2017-04-05T03:09:15.758Z,82.79
2017-04-05T03:10:17.190Z,83.13
2017-04-05T03:11:18.612Z,83.17
2017-04-05T03:12:21.015Z,82.51
2017-04-05T03:13:22.433Z,82.32
2017-04-05T03:14:23.863Z,81.90
2017-04-05T03:15:25.276Z,82.75
2017-04-05T03:16:26.700Z,83.98
2017-04-05T03:17:28.120Z,84.36
2017-04-05T03:18:29.541Z,84.17
2017-04-05T03:19:30.964Z,84.46
2017-04-05T03:20:32.380Z,84.36
2017-04-05T03:21:33.799Z,83.08
2017-04-05T03:22:35.223Z,82.89
2017-04-05T03:23:36.637Z,83.08
2017-04-05T03:24:38.062Z,82.94
2017-04-05T03:25:39.485Z,83.51
2017-04-05T03:26:40.899Z,84.74
2017-04-05T03:27:42.322Z,85.41
2017-04-05T03:28:43.750Z,85.88
2017-04-05T03:29:45.169Z,85.03
2017-04-05T03:30:46.594Z,84.74
2017-04-05T03:31:48.011Z,85.50
2017-04-05T03:32:49.442Z,85.97
2017-04-05T03:33:50.857Z,85.78
2017-04-05T03:34:52.278Z,84.84
2017-04-05T03:35:53.704Z,83.98
2017-04-05T03:36:55.127Z,83.04
2017-04-05T03:37:56.548Z,83.32
2017-04-05T03:38:57.971Z,82.18
2017-04-05T03:39:59.399Z,81.81
2017-04-05T03:41:00.843Z,81.90
2017-04-05T03:42:02.261Z,82.28
2017-04-05T03:43:03.680Z,82.33
2017-04-05T03:44:05.100Z,83.09
2017-04-05T03:45:06.522Z,82.81
2017-04-05T03:46:07.945Z,83.37
2017-04-05T03:47:09.363Z,83.23
2017-04-05T03:48:10.776Z,83.04
2017-04-05T03:49:12.200Z,82.75
2017-04-05T03:50:13.624Z,82.85
2017-04-05T03:51:15.047Z,82.09
2017-04-05T03:52:16.461Z,80.86
2017-04-05T03:53:17.891Z,80.86
2017-04-05T03:54:19.318Z,80.86
2017-04-05T03:55:20.741Z,81.33
2017-04-05T03:56:22.251Z,81.43
2017-04-05T03:57:23.681Z,82.56
2017-04-05T03:58:25.102Z,83.61
2017-04-05T03:59:26.517Z,83.61
2017-04-05T04:00:27.944Z,84.27
2017-04-05T04:01:29.373Z,84.32
2017-04-05T04:02:30.785Z,84.99
2017-04-05T04:03:32.206Z,85.74
2017-04-05T04:04:33.622Z,86.31
2017-04-05T04:05:35.044Z,86.31
2017-04-05T04:06:36.465Z,86.22
2017-04-05T04:07:37.879Z,86.03
2017-04-05T04:08:39.301Z,86.22
2017-04-05T04:09:40.723Z,85.74
2017-04-05T04:10:42.147Z,85.55
2017-04-05T04:11:43.575Z,85.03
2017-04-05T04:12:44.991Z,83.98
2017-04-05T04:13:46.408Z,83.61
2017-04-05T04:14:47.833Z,83.04
2017-04-05T04:15:49.262Z,82.75
2017-04-05T04:16:50.679Z,83.66
2017-04-05T04:17:52.996Z,83.51
2017-04-05T04:18:53.457Z,83.32
2017-04-05T04:19:54.876Z,84.13
2017-04-05T04:20:56.294Z,85.08
2017-04-05T04:21:57.716Z,85.74
2017-04-05T04:22:59.152Z,85.88
2017-04-05T04:24:00.568Z,84.94
2017-04-05T04:25:01.989Z,85.22
2017-04-05T04:26:03.411Z,84.65
2017-04-05T04:27:05.042Z,84.36
2017-04-05T04:28:06.477Z,84.89
2017-04-05T04:29:07.899Z,86.69
2017-04-05T04:30:10.208Z,87.64
2017-04-05T04:31:11.635Z,87.73
2017-04-05T04:32:13.061Z,87.64
2017-04-05T04:33:14.481Z,87.45
2017-04-05T04:34:17.841Z,87.16
2017-04-05T04:35:19.263Z,87.26
2017-04-05T04:36:20.684Z,87.16
2017-04-05T04:37:22.112Z,88.26
2017-04-05T04:38:23.532Z,90.06
2017-04-05T04:39:24.948Z,90.34
2017-04-05T04:40:26.372Z,91.10
2017-04-05T04:41:27.804Z,91.33
2017-04-05T04:42:29.225Z,90.10
2017-04-05T04:43:30.646Z,89.15
2017-04-05T04:44:32.068Z,89.06
2017-04-05T04:45:34.434Z,88.21
2017-04-05T04:46:35.863Z,87.02
2017-04-05T04:47:37.279Z,86.60
2017-04-05T04:48:38.698Z,86.64
2017-04-05T04:49:40.121Z,85.69
2017-04-05T04:50:41.547Z,87.73
2017-04-05T04:51:42.969Z,87.97
2017-04-05T04:52:44.392Z,87.77
2017-04-05T04:53:46.374Z,87.54
2017-04-05T04:54:47.798Z,88.21
2017-04-05T04:55:49.221Z,89.06
2017-04-05T04:56:50.647Z,88.68
2017-04-05T04:57:52.064Z,87.77
2017-04-05T04:58:53.486Z,86.35
2017-04-05T04:59:54.919Z,85.13
2017-04-05T05:00:56.345Z,84.27
2017-04-05T05:01:57.765Z,84.08
2017-04-05T05:02:59.193Z,84.17
2017-04-05T05:04:00.616Z,84.99
2017-04-05T05:05:02.044Z,84.55
2017-04-05T05:06:04.198Z,84.36
2017-04-05T05:07:05.626Z,85.22
2017-04-05T05:08:07.041Z,84.84
2017-04-05T05:09:08.461Z,85.50
2017-04-05T05:10:09.888Z,86.79
2017-04-05T05:11:11.312Z,87.45
2017-04-05T05:12:12.752Z,87.16
2017-04-05T05:13:14.174Z,86.07
2017-04-05T05:14:15.607Z,84.36
2017-04-05T05:15:17.030Z,83.70
2017-04-05T05:16:18.484Z,83.98
2017-04-05T05:17:19.895Z,84.99
2017-04-05T05:18:21.359Z,87.07
2017-04-05T05:19:22.777Z,86.98
2017-04-05T05:20:24.202Z,86.64
2017-04-05T05:21:25.639Z,85.97
2017-04-05T05:22:27.071Z,86.60
2017-04-05T05:23:28.499Z,86.41
2017-04-05T05:24:29.924Z,86.69
2017-04-05T05:25:31.346Z,86.98
2017-04-05T05:26:32.768Z,86.79
2017-04-05T05:27:34.191Z,86.79
2017-04-05T05:28:35.623Z,86.88
2017-04-05T05:29:37.040Z,86.45
2017-04-05T05:30:38.470Z,86.16
2017-04-05T05:31:39.899Z,85.13
2017-04-05T05:32:41.320Z,84.65
2017-04-05T05:33:42.753Z,84.74
2017-04-05T05:34:44.167Z,83.80
2017-04-05T05:35:45.601Z,84.27
2017-04-05T05:36:47.025Z,85.03
2017-04-05T05:37:48.446Z,84.84
2017-04-05T05:38:49.873Z,85.13
2017-04-05T05:39:51.296Z,85.69
2017-04-05T05:40:52.733Z,86.35
2017-04-05T05:41:54.155Z,84.74
2017-04-05T05:42:55.580Z,84.36
2017-04-05T05:43:57.002Z,83.74
2017-04-05T05:44:58.447Z,84.55
2017-04-05T05:45:59.865Z,84.36
2017-04-05T05:47:01.291Z,83.65
2017-04-05T05:48:02.710Z,85.22
2017-04-05T05:49:04.144Z,85.41
2017-04-05T05:50:05.574Z,86.35
2017-04-05T05:51:07.027Z,86.64
2017-04-05T05:52:08.449Z,87.02
2017-04-05T05:53:09.874Z,86.93
2017-04-05T05:54:11.296Z,87.68
2017-04-05T05:55:12.722Z,87.21
2017-04-05T05:56:14.144Z,86.64
2017-04-05T05:57:15.593Z,86.87
2017-04-05T05:58:17.020Z,86.64
2017-04-05T05:59:18.441Z,87.02
2017-04-05T06:00:19.862Z,87.97
2017-04-05T06:01:21.290Z,87.97
2017-04-05T06:02:22.717Z,87.87
2017-04-05T06:03:24.254Z,86.83
2017-04-05T06:04:25.674Z,86.87
2017-04-05T06:05:27.127Z,87.49
2017-04-05T06:06:28.555Z,87.25
2017-04-05T06:07:30.038Z,86.59
2017-04-05T06:08:31.465Z,85.83
2017-04-05T06:09:32.893Z,85.36
2017-04-05T06:10:34.323Z,84.41
2017-04-05T06:11:35.741Z,84.41
2017-04-05T06:12:37.164Z,84.41
2017-04-05T06:13:38.589Z,83.03
2017-04-05T06:14:40.023Z,83.22
2017-04-05T06:15:41.538Z,82.93
2017-04-05T06:16:42.960Z,82.17
2017-04-05T06:17:45.173Z,82.93
2017-04-05T06:18:46.590Z,82.55
2017-04-05T06:19:48.013Z,82.46
2017-04-05T06:20:49.442Z,82.17
2017-04-05T06:21:50.860Z,82.27
2017-04-05T06:22:52.284Z,83.12
2017-04-05T06:23:53.706Z,83.12
2017-04-05T06:24:55.128Z,83.50
2017-04-05T06:25:56.555Z,83.69
2017-04-05T06:26:57.976Z,83.69
2017-04-05T06:27:59.400Z,82.84
2017-04-05T06:29:00.829Z,81.36
2017-04-05T06:30:02.258Z,81.36
2017-04-05T06:31:03.691Z,81.17
2017-04-05T06:32:05.123Z,81.07
2017-04-05T06:33:06.545Z,81.12
2017-04-05T06:34:07.971Z,80.60
2017-04-05T06:35:09.400Z,81.59
2017-04-05T06:36:10.848Z,80.64
2017-04-05T06:37:12.272Z,81.59
2017-04-05T06:38:13.689Z,81.59
2017-04-05T06:39:15.123Z,81.59
2017-04-05T06:40:16.542Z,78.55
2017-04-05T06:41:17.974Z,79.74
2017-04-05T06:42:19.401Z,81.17
2017-04-05T06:43:20.829Z,82.03
2017-04-05T06:44:22.275Z,82.21
2017-04-05T06:45:23.692Z,83.26
2017-04-05T06:46:25.124Z,83.36
2017-04-05T06:47:26.548Z,83.73
2017-04-05T06:48:27.977Z,82.31
2017-04-05T06:49:29.401Z,83.07
2017-04-05T06:50:30.832Z,82.59
2017-04-05T06:51:32.271Z,82.40
2017-04-05T06:52:34.281Z,81.55
2017-04-05T06:53:35.704Z,81.55
2017-04-05T06:54:37.125Z,82.40
2017-04-05T06:55:38.548Z,82.12
2017-04-05T06:56:39.976Z,81.49
2017-04-05T06:57:41.407Z,81.87
2017-04-05T06:58:43.632Z,80.83
2017-04-05T06:59:45.063Z,79.03
2017-04-05T07:00:46.494Z,80.16
2017-04-05T07:01:47.925Z,79.63
2017-04-05T07:02:49.355Z,79.20
2017-04-05T07:03:50.820Z,78.63
2017-04-05T07:04:52.238Z,78.16
2017-04-05T07:05:53.676Z,79.49
2017-04-05T07:06:55.120Z,77.68
2017-04-05T07:07:56.551Z,78.44
2017-04-05T07:08:57.983Z,76.67
2017-04-05T07:09:59.418Z,76.20
2017-04-05T07:11:00.848Z,77.39
2017-04-05T07:12:02.270Z,77.81
2017-04-05T07:13:03.700Z,77.05
2017-04-05T07:14:06.083Z,76.23
2017-04-05T07:15:07.509Z,75.09
2017-04-05T07:16:08.947Z,74.24
2017-04-05T07:17:10.372Z,74.71
2017-04-05T07:18:11.813Z,74.52
2017-04-05T07:19:13.237Z,75.38
2017-04-05T07:20:14.675Z,75.04
2017-04-05T07:21:16.107Z,73.13
2017-04-05T07:22:17.534Z,75.04
2017-04-05T07:23:18.964Z,72.50
2017-04-05T07:24:20.396Z,74.31
2017-04-05T07:25:21.832Z,71.42
2017-04-05T07:26:23.254Z,72.50
2017-04-05T07:27:24.682Z,72.21
2017-04-05T07:28:26.125Z,71.89
2017-04-05T07:29:27.554Z,72.56
2017-04-05T07:30:28.987Z,70.69
2017-04-05T07:31:30.414Z,71.13
2017-04-05T07:32:31.845Z,72.08
2017-04-05T07:33:33.282Z,73.22
2017-04-05T07:34:34.711Z,73.41
2017-04-05T07:35:36.141Z,73.99
2017-04-05T07:36:37.576Z,74.75
2017-04-05T07:37:39.006Z,73.41
2017-04-05T07:38:40.434Z,71.42
2017-04-05T07:39:41.861Z,70.27
2017-04-05T07:40:43.408Z,71.42
2017-04-05T07:41:44.834Z,69.99
2017-04-05T07:42:46.268Z,70.50
2017-04-05T07:43:47.732Z,70.69
2017-04-05T07:44:49.171Z,70.69
2017-04-05T07:45:50.606Z,68.88
2017-04-05T07:46:52.064Z,71.17
2017-04-05T07:47:53.497Z,70.88
2017-04-05T07:48:54.934Z,71.17
2017-04-05T07:49:56.378Z,70.27
2017-04-05T07:50:57.799Z,70.37
2017-04-05T07:51:59.228Z,69.23
2017-04-05T07:53:00.662Z,69.54
2017-04-05T07:54:02.097Z,71.51
2017-04-05T07:55:03.531Z,70.84
2017-04-05T07:56:04.965Z,73.07
2017-04-05T07:57:06.400Z,72.12
2017-04-05T07:58:07.917Z,72.21
2017-04-05T07:59:09.389Z,71.83
2017-04-05T08:00:10.851Z,71.93
2017-04-05T08:01:12.263Z,72.88
2017-04-05T08:02:13.697Z,72.50
2017-04-05T08:03:15.125Z,69.74
2017-04-05T08:04:16.557Z,69.26
2017-04-05T08:05:18.703Z,69.26
2017-04-05T08:06:20.136Z,67.83
2017-04-05T08:07:21.568Z,66.31
2017-04-05T08:08:22.998Z,66.53
2017-04-05T08:09:24.430Z,67.29
2017-04-05T08:10:25.873Z,67.86
2017-04-05T08:11:27.317Z,69.48
2017-04-05T08:12:28.748Z,66.72
2017-04-05T08:13:30.214Z,68.05
2017-04-05T08:14:31.652Z,67.29
2017-04-05T08:15:33.087Z,66.91
2017-04-05T08:16:34.519Z,66.91
2017-04-05T08:17:35.947Z,67.58
2017-04-05T08:18:37.379Z,67.20
2017-04-05T08:19:38.809Z,66.63
2017-04-05T08:20:40.237Z,67.20
2017-04-05T08:21:41.664Z,67.77
2017-04-05T08:22:43.097Z,67.80
2017-04-05T08:23:44.527Z,67.61
2017-04-05T08:24:45.957Z,66.94
2017-04-05T08:25:47.388Z,65.70
2017-04-05T08:26:48.817Z,66.75
2017-04-05T08:27:50.244Z,68.09
2017-04-05T08:28:51.675Z,67.23
2017-04-05T08:29:53.109Z,66.66
2017-04-05T08:30:54.552Z,66.66
2017-04-05T08:31:55.985Z,65.42
2017-04-05T08:32:57.416Z,67.61
2017-04-05T08:33:58.848Z,67.58
2017-04-05T08:35:00.273Z,67.20
2017-04-05T08:36:01.711Z,68.72
2017-04-05T08:37:03.144Z,68.91
2017-04-05T08:38:04.574Z,69.96
2017-04-05T08:39:06.003Z,69.77
2017-04-05T08:40:07.438Z,69.10
2017-04-05T08:41:08.867Z,68.44
2017-04-05T08:42:10.290Z,68.34
2017-04-05T08:43:11.719Z,68.38
2017-04-05T08:44:13.153Z,69.14
2017-04-05T08:45:15.129Z,69.04
2017-04-05T08:46:16.562Z,69.62
2017-04-05T08:47:18.002Z,69.71
2017-04-05T08:48:19.432Z,69.10
2017-04-05T08:49:20.864Z,69.52
2017-04-05T08:50:22.304Z,68.76
2017-04-05T08:51:23.733Z,70.28
2017-04-05T08:52:25.166Z,69.04
2017-04-05T08:53:26.604Z,68.66
2017-04-05T08:54:28.035Z,68.18
2017-04-05T08:55:29.467Z,69.04
2017-04-05T08:56:30.900Z,69.43
2017-04-05T08:57:32.337Z,69.71
2017-04-05T08:58:33.765Z,70.76
2017-04-05T08:59:35.206Z,70.47
2017-04-05T09:00:36.635Z,70.76
2017-04-05T09:01:39.370Z,71.01
2017-04-05T09:02:40.803Z,70.82
2017-04-05T09:03:42.234Z,71.04
2017-04-05T09:04:43.800Z,69.90
2017-04-05T09:05:45.236Z,70.57
2017-04-05T09:06:46.661Z,70.76
2017-04-05T09:07:48.153Z,71.04
2017-04-05T09:08:49.597Z,71.04
2017-04-05T09:09:51.029Z,71.72
2017-04-05T09:10:52.474Z,71.33
2017-04-05T09:11:53.907Z,70.09
2017-04-05T09:12:55.348Z,71.04
2017-04-05T09:13:56.783Z,72.67
2017-04-05T09:14:58.221Z,73.62
2017-04-05T09:15:59.670Z,73.72
2017-04-05T09:17:01.100Z,74.10
2017-04-05T09:18:02.534Z,73.72
2017-04-05T09:19:03.997Z,72.57
2017-04-05T09:20:05.435Z,73.14
2017-04-05T09:21:06.874Z,72.38
2017-04-05T09:22:08.335Z,72.67
2017-04-05T09:23:09.779Z,72.96
2017-04-05T09:24:11.203Z,71.04
2017-04-05T09:25:12.637Z,71.81
2017-04-05T09:26:14.072Z,73.43
2017-04-05T09:27:15.512Z,73.24
2017-04-05T09:28:16.956Z,72.57
2017-04-05T09:29:18.383Z,72.67
2017-04-05T09:30:19.853Z,73.52
2017-04-05T09:31:21.293Z,73.91
2017-04-05T09:32:22.732Z,73.72
2017-04-05T09:33:24.164Z,74.10
2017-04-05T09:34:25.648Z,74.38
2017-04-05T09:35:27.080Z,73.14
2017-04-05T09:36:29.442Z,73.43
2017-04-05T09:37:30.878Z,73.33
2017-04-05T09:38:32.314Z,73.52
2017-04-05T09:39:33.756Z,73.81
2017-04-05T09:40:35.184Z,73.72
2017-04-05T09:41:36.617Z,73.05
2017-04-05T09:42:38.054Z,73.43
2017-04-05T09:43:39.483Z,73.52
2017-04-05T09:44:40.917Z,73.33
2017-04-05T09:45:42.346Z,74.29
2017-04-05T09:46:43.774Z,73.33
2017-04-05T09:47:45.207Z,73.56
2017-04-05T09:48:46.638Z,73.37
2017-04-05T09:49:48.073Z,71.27
2017-04-05T09:50:49.506Z,71.08
2017-04-05T09:51:50.939Z,70.79
2017-04-05T09:52:52.376Z,71.50
2017-04-05T09:53:53.805Z,70.64
2017-04-05T09:54:55.241Z,71.78
2017-04-05T09:55:56.678Z,71.31
2017-04-05T09:56:58.109Z,70.79
2017-04-05T09:57:59.546Z,71.41
2017-04-05T09:59:00.977Z,71.12
2017-04-05T10:00:02.413Z,70.07
2017-04-05T10:01:03.845Z,69.40
2017-04-05T10:02:05.278Z,68.92
2017-04-05T10:03:06.705Z,67.97
2017-04-05T10:04:08.134Z,68.26
2017-04-05T10:05:09.565Z,68.76
2017-04-05T10:06:11.003Z,68.96
2017-04-05T10:07:13.403Z,68.19
2017-04-05T10:08:14.842Z,69.02
2017-04-05T10:09:16.273Z,68.82
2017-04-05T10:10:17.707Z,69.11
2017-04-05T10:11:19.151Z,69.40
2017-04-05T10:12:20.583Z,69.49
2017-04-05T10:13:22.010Z,69.78
2017-04-05T10:14:23.447Z,69.21
2017-04-05T10:15:24.883Z,69.31
2017-04-05T10:16:26.312Z,69.82
2017-04-05T10:17:27.748Z,68.73
2017-04-05T10:18:29.182Z,67.14
2017-04-05T10:19:30.609Z,67.62
2017-04-05T10:20:32.053Z,67.24
2017-04-05T10:21:33.483Z,67.33
2017-04-05T10:22:34.923Z,67.43
2017-04-05T10:23:36.355Z,68.10
2017-04-05T10:24:37.797Z,67.43
2017-04-05T10:25:39.228Z,67.91
2017-04-05T10:26:40.656Z,67.62
2017-04-05T10:27:42.094Z,67.97
2017-04-05T10:28:43.526Z,67.40
2017-04-05T10:29:44.960Z,67.91
2017-04-05T10:30:46.395Z,65.52
2017-04-05T10:31:47.828Z,65.64
2017-04-05T10:32:49.265Z,64.65
2017-04-05T10:33:50.699Z,65.26
2017-04-05T10:34:52.135Z,64.78
2017-04-05T10:35:53.574Z,64.88
2017-04-05T10:36:55.014Z,64.69
2017-04-05T10:37:56.450Z,64.31
2017-04-05T10:38:57.883Z,63.26
2017-04-05T10:39:59.347Z,65.07
2017-04-05T10:41:00.758Z,63.35
2017-04-05T10:42:02.193Z,62.78
2017-04-05T10:43:03.629Z,63.35
2017-04-05T10:44:05.067Z,63.16
2017-04-05T10:45:06.500Z,63.35
2017-04-05T10:46:07.931Z,63.07
2017-04-05T10:47:09.369Z,64.88
2017-04-05T10:48:11.343Z,66.22
2017-04-05T10:49:12.785Z,64.50
2017-04-05T10:50:14.206Z,63.93
2017-04-05T10:51:15.645Z,64.18
2017-04-05T10:52:17.912Z,65.74
2017-04-05T10:53:19.355Z,65.74
2017-04-05T10:54:20.784Z,63.80
2017-04-05T10:55:22.220Z,64.75
2017-04-05T10:56:23.665Z,65.14
2017-04-05T10:57:25.094Z,65.17
2017-04-05T10:58:26.539Z,64.88
2017-04-05T10:59:27.969Z,63.45
2017-04-05T11:00:29.398Z,63.73
2017-04-05T11:01:30.836Z,65.74
2017-04-05T11:02:32.267Z,63.73
2017-04-05T11:03:33.699Z,63.45
2017-04-05T11:04:35.133Z,63.64
2017-04-05T11:05:36.579Z,63.35
2017-04-05T11:06:38.021Z,63.73
2017-04-05T11:07:39.456Z,63.70
2017-04-05T11:08:40.907Z,64.85
2017-04-05T11:09:42.338Z,65.14
2017-04-05T11:10:43.779Z,65.71
2017-04-05T11:11:45.215Z,65.80
2017-04-05T11:12:46.646Z,65.14
2017-04-05T11:13:48.077Z,64.37
2017-04-05T11:14:49.507Z,64.65
2017-04-05T11:15:50.942Z,64.69
2017-04-05T11:16:52.372Z,63.70
2017-04-05T11:17:53.809Z,64.02
2017-04-05T11:18:55.245Z,63.16
2017-04-05T11:19:56.687Z,61.92
2017-04-05T11:20:58.125Z,61.57
2017-04-05T11:21:59.560Z,60.74
2017-04-05T11:23:00.991Z,58.54
2017-04-05T11:24:02.426Z,59.78
2017-04-05T11:25:03.864Z,59.14
2017-04-05T11:26:05.296Z,59.08
2017-04-05T11:27:06.723Z,57.48
2017-04-05T11:28:08.166Z,54.32
2017-04-05T11:29:09.598Z,55.18
2017-04-05T11:30:11.038Z,55.85
2017-04-05T11:31:12.472Z,56.46
2017-04-05T11:32:13.906Z,57.55
2017-04-05T11:33:15.336Z,58.98
2017-04-05T11:34:16.776Z,58.22
2017-04-05T11:35:18.216Z,58.51
2017-04-05T11:36:20.428Z,58.51
2017-04-05T11:37:21.870Z,59.59
2017-04-05T11:38:23.324Z,58.44
2017-04-05T11:39:24.746Z,58.63
2017-04-05T11:40:26.180Z,58.34
2017-04-05T11:41:27.621Z,58.92
2017-04-05T11:42:29.597Z,58.22
2017-04-05T11:43:31.040Z,57.71
2017-04-05T11:44:32.466Z,58.89
2017-04-05T11:45:33.903Z,58.70
2017-04-05T11:46:35.332Z,59.34
2017-04-05T11:47:36.762Z,59.37
2017-04-05T11:48:38.195Z,58.51
2017-04-05T11:49:39.631Z,58.19
2017-04-05T11:50:41.074Z,58.58
2017-04-05T11:51:42.504Z,56.69
2017-04-05T11:52:43.938Z,56.12
2017-04-05T11:53:45.374Z,56.79
2017-04-05T11:54:46.808Z,54.93
2017-04-05T11:55:48.241Z,55.05
2017-04-05T11:56:49.672Z,54.16
2017-04-05T11:57:51.106Z,55.79
2017-04-05T11:58:52.545Z,54.19
2017-04-05T11:59:53.979Z,53.16
2017-04-05T12:00:55.415Z,52.85
2017-04-05T12:01:56.849Z,53.14
2017-04-05T12:02:58.289Z,53.04
2017-04-05T12:03:59.730Z,54.32
2017-04-05T12:05:01.163Z,50.58
2017-04-05T12:06:02.599Z,49.24
2017-04-05T12:07:04.034Z,51.15
2017-04-05T12:08:05.468Z,50.67
2017-04-05T12:09:06.904Z,51.79
2017-04-05T12:10:08.361Z,52.37
2017-04-05T12:11:09.778Z,52.63
2017-04-05T12:12:11.208Z,53.94
2017-04-05T12:13:12.644Z,55.79
2017-04-05T12:14:14.074Z,55.57
2017-04-05T12:15:15.505Z,55.67
2017-04-05T12:16:16.947Z,55.57
2017-04-05T12:17:18.383Z,53.78
2017-04-05T12:18:19.817Z,54.16
2017-04-05T12:19:21.257Z,52.83
2017-04-05T12:20:22.696Z,52.34
2017-04-05T12:21:24.122Z,52.09
2017-04-05T12:22:25.555Z,51.61
2017-04-05T12:23:26.991Z,52.63
2017-04-05T12:24:28.424Z,53.02
2017-04-05T12:25:29.860Z,53.85
2017-04-05T12:26:31.296Z,53.94
2017-04-05T12:27:32.734Z,54.59
2017-04-05T12:28:34.175Z,55.16
2017-04-05T12:29:35.607Z,55.29
2017-04-05T12:30:37.065Z,53.75
2017-04-05T12:31:38.501Z,53.34
2017-04-05T12:32:39.940Z,53.25
2017-04-05T12:33:41.380Z,54.04
2017-04-05T12:34:42.818Z,54.68
2017-04-05T12:35:44.248Z,54.04
2017-04-05T12:36:45.688Z,54.86
2017-04-05T12:37:47.119Z,51.79
2017-04-05T12:38:48.556Z,52.15
2017-04-05T12:39:50.001Z,52.80
2017-04-05T12:40:51.446Z,53.25
2017-04-05T12:41:52.881Z,55.54
2017-04-05T12:44:52.698Z,54.43
2017-04-05T12:45:54.140Z,54.64
2017-04-05T12:46:55.570Z,53.11
2017-04-05T12:47:57.000Z,52.83
2017-04-05T12:48:58.454Z,53.30
2017-04-05T12:49:59.884Z,53.02
2017-04-05T12:51:01.319Z,51.79
2017-04-05T12:52:02.751Z,50.26
2017-04-05T12:53:04.186Z,50.67
2017-04-05T12:54:05.616Z,49.76
2017-04-05T12:55:07.046Z,50.79
2017-04-05T12:56:08.484Z,50.86
2017-04-05T12:57:09.919Z,52.03
2017-04-05T12:58:11.359Z,53.53
2017-04-05T12:59:12.793Z,53.94
2017-04-05T13:00:14.220Z,52.70
2017-04-05T13:01:15.654Z,52.58
2017-04-05T13:02:17.081Z,53.18
2017-04-05T13:03:18.528Z,53.18
2017-04-05T13:04:19.970Z,51.75
2017-04-05T13:05:21.406Z,51.56
2017-04-05T13:06:22.841Z,50.43
2017-04-05T13:07:24.287Z,51.03
2017-04-05T13:08:25.712Z,49.60
2017-04-05T13:09:27.157Z,49.60
2017-04-05T13:10:28.594Z,49.31
2017-04-05T13:11:30.036Z,49.93
2017-04-05T13:12:31.471Z,51.93
2017-04-05T13:13:32.909Z,52.10